sensor_id;sensor_type;location;lat;lon;timestamp;P1;durP1;ratioP1;P2;durP2;ratioP2
32611;SDS011;19030;49.478;8.986;2022-07-22T00:01:45;11.07;;;8.50;;
32611;SDS011;19030;49.478;8.986;2022-07-22T00:03:46;12.52;;;8.48;;
32611;SDS011;19030;49.478;8.986;2022-07-22T00:05:46;12.73;;;8.45;;
32611;SDS011;19030;49.478;8.986;2022-07-22T00:07:47;12.75;;;9.50;;
32611;SDS011;19030;49.478;8.986;2022-07-22T00:09:47;11.65;;;8.98;;
32611;SDS011;19030;49.478;8.986;2022-07-22T00:11:48;15.10;;;8.95;;
32611;SDS011;19030;49.478;8.986;2022-07-22T00:13:49;11.20;;;8.85;;
32611;SDS011;19030;49.478;8.986;2022-07-22T00:15:49;12.35;;;9.15;;
32611;SDS011;19030;49.478;8.986;2022-07-22T00:17:50;13.57;;;9.10;;
32611;SDS011;19030;49.478;8.986;2022-07-22T00:19:50;12.10;;;8.93;;
32611;SDS011;19030;49.478;8.986;2022-07-22T00:21:51;13.02;;;8.50;;
32611;SDS011;19030;49.478;8.986;2022-07-22T00:23:52;13.55;;;8.60;;
32611;SDS011;19030;49.478;8.986;2022-07-22T00:25:53;11.18;;;8.45;;
32611;SDS011;19030;49.478;8.986;2022-07-22T00:27:54;11.55;;;8.38;;
32611;SDS011;19030;49.478;8.986;2022-07-22T00:29:54;12.52;;;9.10;;
32611;SDS011;19030;49.478;8.986;2022-07-22T00:31:55;11.40;;;9.13;;
32611;SDS011;19030;49.478;8.986;2022-07-22T00:33:56;15.57;;;8.65;;
32611;SDS011;19030;49.478;8.986;2022-07-22T00:35:56;12.85;;;9.20;;
32611;SDS011;19030;49.478;8.986;2022-07-22T00:37:57;12.40;;;8.50;;
32611;SDS011;19030;49.478;8.986;2022-07-22T00:39:57;11.07;;;9.40;;
32611;SDS011;19030;49.478;8.986;2022-07-22T00:41:58;15.38;;;9.23;;
32611;SDS011;19030;49.478;8.986;2022-07-22T00:44:06;13.30;;;10.05;;
32611;SDS011;19030;49.478;8.986;2022-07-22T00:46:08;12.75;;;8.93;;
32611;SDS011;19030;49.478;8.986;2022-07-22T00:48:08;13.20;;;9.40;;
32611;SDS011;19030;49.478;8.986;2022-07-22T00:50:09;13.05;;;9.05;;
32611;SDS011;19030;49.478;8.986;2022-07-22T00:52:10;11.77;;;8.95;;
32611;SDS011;19030;49.478;8.986;2022-07-22T00:54:12;12.48;;;9.25;;
32611;SDS011;19030;49.478;8.986;2022-07-22T00:56:13;13.70;;;9.57;;
32611;SDS011;19030;49.478;8.986;2022-07-22T00:58:15;12.68;;;9.48;;
32611;SDS011;19030;49.478;8.986;2022-07-22T01:00:16;14.65;;;9.45;;
32611;SDS011;19030;49.478;8.986;2022-07-22T01:02:19;13.00;;;9.50;;
32611;SDS011;19030;49.478;8.986;2022-07-22T01:04:20;15.13;;;9.98;;
32611;SDS011;19030;49.478;8.986;2022-07-22T01:06:21;13.18;;;9.48;;
32611;SDS011;19030;49.478;8.986;2022-07-22T01:08:22;13.60;;;9.07;;
32611;SDS011;19030;49.478;8.986;2022-07-22T01:10:23;12.32;;;9.70;;
32611;SDS011;19030;49.478;8.986;2022-07-22T01:12:24;13.63;;;9.50;;
32611;SDS011;19030;49.478;8.986;2022-07-22T01:14:25;12.45;;;9.45;;
32611;SDS011;19030;49.478;8.986;2022-07-22T01:16:26;11.38;;;8.57;;
32611;SDS011;19030;49.478;8.986;2022-07-22T01:18:26;11.55;;;9.07;;
32611;SDS011;19030;49.478;8.986;2022-07-22T01:20:27;12.73;;;9.60;;
32611;SDS011;19030;49.478;8.986;2022-07-22T01:22:28;12.85;;;10.25;;
32611;SDS011;19030;49.478;8.986;2022-07-22T01:24:28;13.73;;;9.32;;
32611;SDS011;19030;49.478;8.986;2022-07-22T01:26:29;12.77;;;9.05;;
32611;SDS011;19030;49.478;8.986;2022-07-22T01:28:30;13.95;;;9.65;;
32611;SDS011;19030;49.478;8.986;2022-07-22T01:30:31;14.40;;;9.77;;
32611;SDS011;19030;49.478;8.986;2022-07-22T01:32:32;12.65;;;9.18;;
32611;SDS011;19030;49.478;8.986;2022-07-22T01:34:32;11.77;;;8.98;;
32611;SDS011;19030;49.478;8.986;2022-07-22T01:36:33;14.25;;;10.00;;
32611;SDS011;19030;49.478;8.986;2022-07-22T01:38:34;13.18;;;9.73;;
32611;SDS011;19030;49.478;8.986;2022-07-22T01:40:34;14.05;;;10.20;;
32611;SDS011;19030;49.478;8.986;2022-07-22T01:42:35;13.15;;;9.73;;
32611;SDS011;19030;49.478;8.986;2022-07-22T01:44:35;12.20;;;9.63;;
32611;SDS011;19030;49.478;8.986;2022-07-22T01:46:36;14.05;;;9.93;;
32611;SDS011;19030;49.478;8.986;2022-07-22T01:48:37;11.57;;;9.30;;
32611;SDS011;19030;49.478;8.986;2022-07-22T01:50:38;13.27;;;9.45;;
32611;SDS011;19030;49.478;8.986;2022-07-22T01:52:39;15.88;;;10.20;;
32611;SDS011;19030;49.478;8.986;2022-07-22T01:54:39;12.32;;;9.48;;
32611;SDS011;19030;49.478;8.986;2022-07-22T01:56:40;13.50;;;9.75;;
32611;SDS011;19030;49.478;8.986;2022-07-22T01:58:41;14.10;;;10.77;;
32611;SDS011;19030;49.478;8.986;2022-07-22T02:00:43;12.25;;;10.20;;
32611;SDS011;19030;49.478;8.986;2022-07-22T02:02:44;14.93;;;10.35;;
32611;SDS011;19030;49.478;8.986;2022-07-22T02:04:44;12.63;;;9.35;;
32611;SDS011;19030;49.478;8.986;2022-07-22T02:06:45;13.30;;;10.38;;
32611;SDS011;19030;49.478;8.986;2022-07-22T02:08:46;14.40;;;10.48;;
32611;SDS011;19030;49.478;8.986;2022-07-22T02:10:48;12.60;;;9.95;;
32611;SDS011;19030;49.478;8.986;2022-07-22T02:12:49;13.57;;;9.82;;
32611;SDS011;19030;49.478;8.986;2022-07-22T02:14:50;12.57;;;9.57;;
32611;SDS011;19030;49.478;8.986;2022-07-22T02:16:51;12.48;;;9.00;;
32611;SDS011;19030;49.478;8.986;2022-07-22T02:18:51;15.02;;;10.13;;
32611;SDS011;19030;49.478;8.986;2022-07-22T02:20:52;12.82;;;9.98;;
32611;SDS011;19030;49.478;8.986;2022-07-22T02:22:53;13.73;;;9.15;;
32611;SDS011;19030;49.478;8.986;2022-07-22T02:24:53;13.10;;;9.07;;
32611;SDS011;19030;49.478;8.986;2022-07-22T02:26:54;13.90;;;10.13;;
32611;SDS011;19030;49.478;8.986;2022-07-22T02:28:54;11.70;;;9.10;;
32611;SDS011;19030;49.478;8.986;2022-07-22T02:30:56;12.15;;;9.30;;
32611;SDS011;19030;49.478;8.986;2022-07-22T02:32:57;14.68;;;10.57;;
32611;SDS011;19030;49.478;8.986;2022-07-22T02:34:58;14.68;;;9.68;;
32611;SDS011;19030;49.478;8.986;2022-07-22T02:36:58;12.27;;;8.90;;
32611;SDS011;19030;49.478;8.986;2022-07-22T02:38:59;15.10;;;9.52;;
32611;SDS011;19030;49.478;8.986;2022-07-22T02:41:00;13.15;;;9.60;;
32611;SDS011;19030;49.478;8.986;2022-07-22T02:43:00;13.77;;;10.13;;
32611;SDS011;19030;49.478;8.986;2022-07-22T02:45:01;12.05;;;9.20;;
32611;SDS011;19030;49.478;8.986;2022-07-22T02:47:03;15.35;;;9.25;;
32611;SDS011;19030;49.478;8.986;2022-07-22T02:49:07;13.63;;;9.45;;
32611;SDS011;19030;49.478;8.986;2022-07-22T02:51:08;11.90;;;9.38;;
32611;SDS011;19030;49.478;8.986;2022-07-22T02:53:09;11.95;;;9.30;;
32611;SDS011;19030;49.478;8.986;2022-07-22T02:55:12;14.20;;;9.52;;
32611;SDS011;19030;49.478;8.986;2022-07-22T02:57:13;12.38;;;8.80;;
32611;SDS011;19030;49.478;8.986;2022-07-22T02:59:14;14.05;;;9.68;;
32611;SDS011;19030;49.478;8.986;2022-07-22T03:01:16;12.32;;;9.40;;
32611;SDS011;19030;49.478;8.986;2022-07-22T03:03:24;11.73;;;8.82;;
32611;SDS011;19030;49.478;8.986;2022-07-22T03:05:25;13.18;;;9.93;;
32611;SDS011;19030;49.478;8.986;2022-07-22T03:07:32;12.82;;;9.48;;
32611;SDS011;19030;49.478;8.986;2022-07-22T03:09:34;12.52;;;9.48;;
32611;SDS011;19030;49.478;8.986;2022-07-22T03:11:35;15.18;;;9.73;;
32611;SDS011;19030;49.478;8.986;2022-07-22T03:13:37;14.90;;;9.93;;
32611;SDS011;19030;49.478;8.986;2022-07-22T03:15:37;11.88;;;9.48;;
32611;SDS011;19030;49.478;8.986;2022-07-22T03:17:38;11.88;;;9.23;;
32611;SDS011;19030;49.478;8.986;2022-07-22T03:19:40;14.63;;;9.90;;
32611;SDS011;19030;49.478;8.986;2022-07-22T03:21:41;13.55;;;10.07;;
32611;SDS011;19030;49.478;8.986;2022-07-22T03:23:41;13.25;;;9.63;;
32611;SDS011;19030;49.478;8.986;2022-07-22T03:25:42;14.07;;;9.70;;
32611;SDS011;19030;49.478;8.986;2022-07-22T03:27:43;15.38;;;10.43;;
32611;SDS011;19030;49.478;8.986;2022-07-22T03:29:43;14.98;;;9.40;;
32611;SDS011;19030;49.478;8.986;2022-07-22T03:31:44;15.10;;;9.55;;
32611;SDS011;19030;49.478;8.986;2022-07-22T03:33:45;14.93;;;9.95;;
32611;SDS011;19030;49.478;8.986;2022-07-22T03:35:46;13.80;;;9.15;;
32611;SDS011;19030;49.478;8.986;2022-07-22T03:37:47;13.02;;;8.75;;
32611;SDS011;19030;49.478;8.986;2022-07-22T03:39:49;12.85;;;9.73;;
32611;SDS011;19030;49.478;8.986;2022-07-22T03:41:50;14.68;;;9.73;;
32611;SDS011;19030;49.478;8.986;2022-07-22T03:43:50;14.10;;;9.18;;
32611;SDS011;19030;49.478;8.986;2022-07-22T03:45:52;13.27;;;9.25;;
32611;SDS011;19030;49.478;8.986;2022-07-22T03:47:53;12.18;;;8.95;;
32611;SDS011;19030;49.478;8.986;2022-07-22T03:49:56;13.63;;;9.32;;
32611;SDS011;19030;49.478;8.986;2022-07-22T03:52:01;13.02;;;9.43;;
32611;SDS011;19030;49.478;8.986;2022-07-22T03:54:02;12.85;;;9.75;;
32611;SDS011;19030;49.478;8.986;2022-07-22T03:56:03;13.05;;;9.85;;
32611;SDS011;19030;49.478;8.986;2022-07-22T03:58:05;14.52;;;9.50;;
32611;SDS011;19030;49.478;8.986;2022-07-22T04:00:06;14.50;;;9.13;;
32611;SDS011;19030;49.478;8.986;2022-07-22T04:02:14;12.52;;;9.35;;
32611;SDS011;19030;49.478;8.986;2022-07-22T04:04:15;11.60;;;8.88;;
32611;SDS011;19030;49.478;8.986;2022-07-22T04:06:17;13.20;;;9.55;;
32611;SDS011;19030;49.478;8.986;2022-07-22T04:08:23;12.50;;;9.23;;
32611;SDS011;19030;49.478;8.986;2022-07-22T04:10:23;13.75;;;9.40;;
32611;SDS011;19030;49.478;8.986;2022-07-22T04:12:24;12.50;;;9.68;;
32611;SDS011;19030;49.478;8.986;2022-07-22T04:14:44;13.55;;;10.23;;
32611;SDS011;19030;49.478;8.986;2022-07-22T04:16:45;11.82;;;8.73;;
32611;SDS011;19030;49.478;8.986;2022-07-22T04:18:45;13.23;;;9.10;;
32611;SDS011;19030;49.478;8.986;2022-07-22T04:20:46;12.20;;;9.45;;
32611;SDS011;19030;49.478;8.986;2022-07-22T04:22:55;12.13;;;8.80;;
32611;SDS011;19030;49.478;8.986;2022-07-22T04:24:56;12.38;;;8.73;;
32611;SDS011;19030;49.478;8.986;2022-07-22T04:26:57;14.05;;;9.13;;
32611;SDS011;19030;49.478;8.986;2022-07-22T04:28:58;14.57;;;9.18;;
32611;SDS011;19030;49.478;8.986;2022-07-22T04:30:59;11.80;;;9.38;;
32611;SDS011;19030;49.478;8.986;2022-07-22T04:32:59;12.98;;;9.57;;
32611;SDS011;19030;49.478;8.986;2022-07-22T04:35:00;12.40;;;9.07;;
32611;SDS011;19030;49.478;8.986;2022-07-22T04:37:01;13.52;;;9.00;;
32611;SDS011;19030;49.478;8.986;2022-07-22T04:39:05;14.10;;;9.45;;
32611;SDS011;19030;49.478;8.986;2022-07-22T04:41:06;13.95;;;9.80;;
32611;SDS011;19030;49.478;8.986;2022-07-22T04:43:07;13.52;;;9.10;;
32611;SDS011;19030;49.478;8.986;2022-07-22T04:45:07;11.85;;;8.32;;
32611;SDS011;19030;49.478;8.986;2022-07-22T04:47:08;12.93;;;9.20;;
32611;SDS011;19030;49.478;8.986;2022-07-22T04:49:10;13.85;;;8.60;;
32611;SDS011;19030;49.478;8.986;2022-07-22T04:51:10;12.10;;;9.07;;
32611;SDS011;19030;49.478;8.986;2022-07-22T04:53:11;13.82;;;9.68;;
32611;SDS011;19030;49.478;8.986;2022-07-22T04:55:11;14.40;;;9.43;;
32611;SDS011;19030;49.478;8.986;2022-07-22T04:57:12;11.60;;;9.10;;
32611;SDS011;19030;49.478;8.986;2022-07-22T04:59:12;12.68;;;9.25;;
32611;SDS011;19030;49.478;8.986;2022-07-22T05:01:14;15.32;;;9.85;;
32611;SDS011;19030;49.478;8.986;2022-07-22T05:03:17;12.27;;;9.43;;
32611;SDS011;19030;49.478;8.986;2022-07-22T05:05:18;12.38;;;8.57;;
32611;SDS011;19030;49.478;8.986;2022-07-22T05:07:19;15.35;;;9.00;;
32611;SDS011;19030;49.478;8.986;2022-07-22T05:09:20;12.77;;;9.45;;
32611;SDS011;19030;49.478;8.986;2022-07-22T05:11:20;12.40;;;8.50;;
32611;SDS011;19030;49.478;8.986;2022-07-22T05:13:22;14.27;;;8.48;;
32611;SDS011;19030;49.478;8.986;2022-07-22T05:15:23;13.38;;;8.73;;
32611;SDS011;19030;49.478;8.986;2022-07-22T05:17:23;13.85;;;8.75;;
32611;SDS011;19030;49.478;8.986;2022-07-22T05:19:37;12.55;;;8.82;;
32611;SDS011;19030;49.478;8.986;2022-07-22T05:21:40;11.70;;;8.75;;
32611;SDS011;19030;49.478;8.986;2022-07-22T05:23:42;14.45;;;9.38;;
32611;SDS011;19030;49.478;8.986;2022-07-22T05:25:43;11.93;;;9.40;;
32611;SDS011;19030;49.478;8.986;2022-07-22T05:27:50;12.55;;;9.18;;
32611;SDS011;19030;49.478;8.986;2022-07-22T05:29:56;12.50;;;8.52;;
32611;SDS011;19030;49.478;8.986;2022-07-22T05:31:56;13.43;;;8.88;;
32611;SDS011;19030;49.478;8.986;2022-07-22T05:33:58;11.80;;;8.98;;
32611;SDS011;19030;49.478;8.986;2022-07-22T05:36:06;12.68;;;8.73;;
32611;SDS011;19030;49.478;8.986;2022-07-22T05:38:13;12.60;;;9.05;;
32611;SDS011;19030;49.478;8.986;2022-07-22T05:40:14;11.80;;;9.05;;
32611;SDS011;19030;49.478;8.986;2022-07-22T05:42:15;12.60;;;9.60;;
32611;SDS011;19030;49.478;8.986;2022-07-22T05:44:15;13.38;;;9.38;;
32611;SDS011;19030;49.478;8.986;2022-07-22T05:46:16;13.25;;;10.23;;
32611;SDS011;19030;49.478;8.986;2022-07-22T05:48:17;13.02;;;9.30;;
32611;SDS011;19030;49.478;8.986;2022-07-22T05:50:18;13.50;;;9.02;;
32611;SDS011;19030;49.478;8.986;2022-07-22T05:52:19;12.77;;;9.30;;
32611;SDS011;19030;49.478;8.986;2022-07-22T05:54:20;12.00;;;8.52;;
32611;SDS011;19030;49.478;8.986;2022-07-22T05:56:20;11.30;;;8.77;;
32611;SDS011;19030;49.478;8.986;2022-07-22T05:58:22;12.25;;;9.25;;
32611;SDS011;19030;49.478;8.986;2022-07-22T06:00:23;11.27;;;7.88;;
32611;SDS011;19030;49.478;8.986;2022-07-22T06:02:23;12.35;;;8.35;;
32611;SDS011;19030;49.478;8.986;2022-07-22T06:04:24;12.23;;;8.98;;
32611;SDS011;19030;49.478;8.986;2022-07-22T06:06:25;12.52;;;8.48;;
32611;SDS011;19030;49.478;8.986;2022-07-22T06:08:26;11.80;;;7.72;;
32611;SDS011;19030;49.478;8.986;2022-07-22T06:10:27;12.65;;;8.60;;
32611;SDS011;19030;49.478;8.986;2022-07-22T06:12:27;12.48;;;8.65;;
32611;SDS011;19030;49.478;8.986;2022-07-22T06:14:28;14.05;;;8.63;;
32611;SDS011;19030;49.478;8.986;2022-07-22T06:16:29;13.23;;;8.73;;
32611;SDS011;19030;49.478;8.986;2022-07-22T06:18:34;12.40;;;7.75;;
32611;SDS011;19030;49.478;8.986;2022-07-22T06:20:35;12.68;;;8.10;;
32611;SDS011;19030;49.478;8.986;2022-07-22T06:22:39;9.90;;;7.22;;
32611;SDS011;19030;49.478;8.986;2022-07-22T06:24:40;10.80;;;7.20;;
32611;SDS011;19030;49.478;8.986;2022-07-22T06:26:41;11.10;;;7.00;;
32611;SDS011;19030;49.478;8.986;2022-07-22T06:28:41;11.45;;;7.65;;
32611;SDS011;19030;49.478;8.986;2022-07-22T06:30:43;9.95;;;6.88;;
32611;SDS011;19030;49.478;8.986;2022-07-22T06:32:43;14.35;;;7.80;;
32611;SDS011;19030;49.478;8.986;2022-07-22T06:34:44;11.35;;;7.47;;
32611;SDS011;19030;49.478;8.986;2022-07-22T06:36:44;10.32;;;7.43;;
32611;SDS011;19030;49.478;8.986;2022-07-22T06:38:45;12.35;;;7.65;;
32611;SDS011;19030;49.478;8.986;2022-07-22T06:40:46;11.30;;;7.57;;
32611;SDS011;19030;49.478;8.986;2022-07-22T06:43:07;10.82;;;6.88;;
32611;SDS011;19030;49.478;8.986;2022-07-22T06:45:27;13.15;;;7.50;;
32611;SDS011;19030;49.478;8.986;2022-07-22T06:47:45;12.23;;;7.18;;
32611;SDS011;19030;49.478;8.986;2022-07-22T06:49:48;12.18;;;7.10;;
32611;SDS011;19030;49.478;8.986;2022-07-22T06:51:49;18.75;;;7.65;;
32611;SDS011;19030;49.478;8.986;2022-07-22T06:53:50;11.95;;;7.82;;
32611;SDS011;19030;49.478;8.986;2022-07-22T06:55:51;10.23;;;7.22;;
32611;SDS011;19030;49.478;8.986;2022-07-22T06:57:52;10.02;;;6.72;;
32611;SDS011;19030;49.478;8.986;2022-07-22T06:59:52;10.60;;;6.85;;
32611;SDS011;19030;49.478;8.986;2022-07-22T07:01:53;10.63;;;7.22;;
32611;SDS011;19030;49.478;8.986;2022-07-22T07:03:55;9.82;;;6.95;;
32611;SDS011;19030;49.478;8.986;2022-07-22T07:05:55;11.50;;;6.70;;
32611;SDS011;19030;49.478;8.986;2022-07-22T07:07:56;11.68;;;7.05;;
32611;SDS011;19030;49.478;8.986;2022-07-22T07:09:57;10.23;;;7.20;;
32611;SDS011;19030;49.478;8.986;2022-07-22T07:12:05;10.57;;;7.10;;
32611;SDS011;19030;49.478;8.986;2022-07-22T07:14:24;11.55;;;6.63;;
32611;SDS011;19030;49.478;8.986;2022-07-22T07:16:25;11.10;;;7.07;;
32611;SDS011;19030;49.478;8.986;2022-07-22T07:18:27;12.20;;;6.65;;
32611;SDS011;19030;49.478;8.986;2022-07-22T07:20:27;11.32;;;6.72;;
32611;SDS011;19030;49.478;8.986;2022-07-22T07:22:28;10.77;;;6.72;;
32611;SDS011;19030;49.478;8.986;2022-07-22T07:24:29;9.35;;;6.50;;
32611;SDS011;19030;49.478;8.986;2022-07-22T07:26:30;9.13;;;6.68;;
32611;SDS011;19030;49.478;8.986;2022-07-22T07:28:31;9.13;;;6.53;;
32611;SDS011;19030;49.478;8.986;2022-07-22T07:30:37;10.40;;;7.28;;
32611;SDS011;19030;49.478;8.986;2022-07-22T07:32:38;11.30;;;6.60;;
32611;SDS011;19030;49.478;8.986;2022-07-22T07:34:39;14.38;;;6.90;;
32611;SDS011;19030;49.478;8.986;2022-07-22T07:36:40;11.30;;;6.70;;
32611;SDS011;19030;49.478;8.986;2022-07-22T07:38:42;8.73;;;6.22;;
32611;SDS011;19030;49.478;8.986;2022-07-22T07:40:48;9.68;;;5.97;;
32611;SDS011;19030;49.478;8.986;2022-07-22T07:42:48;9.38;;;6.50;;
32611;SDS011;19030;49.478;8.986;2022-07-22T07:44:51;9.52;;;6.78;;
32611;SDS011;19030;49.478;8.986;2022-07-22T07:46:52;8.98;;;6.32;;
32611;SDS011;19030;49.478;8.986;2022-07-22T07:48:52;11.38;;;6.75;;
32611;SDS011;19030;49.478;8.986;2022-07-22T07:50:55;8.85;;;6.50;;
32611;SDS011;19030;49.478;8.986;2022-07-22T07:52:56;9.93;;;6.60;;
32611;SDS011;19030;49.478;8.986;2022-07-22T07:54:58;11.80;;;6.47;;
32611;SDS011;19030;49.478;8.986;2022-07-22T07:56:59;9.90;;;6.90;;
32611;SDS011;19030;49.478;8.986;2022-07-22T07:59:00;9.80;;;6.03;;
32611;SDS011;19030;49.478;8.986;2022-07-22T08:01:00;9.10;;;6.60;;
32611;SDS011;19030;49.478;8.986;2022-07-22T08:03:02;9.80;;;6.90;;
32611;SDS011;19030;49.478;8.986;2022-07-22T08:05:05;9.57;;;6.90;;
32611;SDS011;19030;49.478;8.986;2022-07-22T08:07:07;11.60;;;7.20;;
32611;SDS011;19030;49.478;8.986;2022-07-22T08:09:08;9.57;;;6.38;;
32611;SDS011;19030;49.478;8.986;2022-07-22T08:11:14;9.90;;;6.85;;
32611;SDS011;19030;49.478;8.986;2022-07-22T08:13:27;9.45;;;6.47;;
32611;SDS011;19030;49.478;8.986;2022-07-22T08:15:36;9.63;;;6.63;;
32611;SDS011;19030;49.478;8.986;2022-07-22T08:17:42;10.00;;;6.10;;
32611;SDS011;19030;49.478;8.986;2022-07-22T08:19:43;9.38;;;6.75;;
32611;SDS011;19030;49.478;8.986;2022-07-22T08:21:44;10.30;;;5.90;;
32611;SDS011;19030;49.478;8.986;2022-07-22T08:23:57;7.90;;;6.05;;
32611;SDS011;19030;49.478;8.986;2022-07-22T08:25:58;9.80;;;6.30;;
32611;SDS011;19030;49.478;8.986;2022-07-22T08:28:00;9.20;;;6.25;;
32611;SDS011;19030;49.478;8.986;2022-07-22T08:30:00;9.85;;;6.72;;
32611;SDS011;19030;49.478;8.986;2022-07-22T08:32:04;12.15;;;7.13;;
32611;SDS011;19030;49.478;8.986;2022-07-22T08:34:05;8.73;;;6.50;;
32611;SDS011;19030;49.478;8.986;2022-07-22T08:36:06;8.55;;;6.40;;
32611;SDS011;19030;49.478;8.986;2022-07-22T08:38:07;9.55;;;6.78;;
32611;SDS011;19030;49.478;8.986;2022-07-22T08:40:09;10.95;;;6.65;;
32611;SDS011;19030;49.478;8.986;2022-07-22T08:42:10;11.40;;;6.40;;
32611;SDS011;19030;49.478;8.986;2022-07-22T08:44:13;9.23;;;6.53;;
32611;SDS011;19030;49.478;8.986;2022-07-22T08:46:14;9.05;;;6.10;;
32611;SDS011;19030;49.478;8.986;2022-07-22T08:48:37;11.38;;;6.10;;
32611;SDS011;19030;49.478;8.986;2022-07-22T08:50:59;9.52;;;6.32;;
32611;SDS011;19030;49.478;8.986;2022-07-22T08:53:13;9.50;;;6.80;;
32611;SDS011;19030;49.478;8.986;2022-07-22T08:55:15;9.75;;;6.25;;
32611;SDS011;19030;49.478;8.986;2022-07-22T08:57:17;9.65;;;6.18;;
32611;SDS011;19030;49.478;8.986;2022-07-22T08:59:18;9.52;;;6.38;;
32611;SDS011;19030;49.478;8.986;2022-07-22T09:01:19;9.48;;;6.28;;
32611;SDS011;19030;49.478;8.986;2022-07-22T09:03:24;10.52;;;6.75;;
32611;SDS011;19030;49.478;8.986;2022-07-22T09:07:36;9.65;;;6.28;;
32611;SDS011;19030;49.478;8.986;2022-07-22T09:09:43;10.63;;;6.93;;
32611;SDS011;19030;49.478;8.986;2022-07-22T09:12:09;9.83;;;6.67;;
32611;SDS011;19030;49.478;8.986;2022-07-22T09:14:23;11.00;;;6.60;;
32611;SDS011;19030;49.478;8.986;2022-07-22T09:16:56;12.32;;;7.00;;
32611;SDS011;19030;49.478;8.986;2022-07-22T09:19:02;9.65;;;6.90;;
32611;SDS011;19030;49.478;8.986;2022-07-22T09:21:21;10.32;;;6.28;;
32611;SDS011;19030;49.478;8.986;2022-07-22T09:23:41;9.20;;;6.35;;
32611;SDS011;19030;49.478;8.986;2022-07-22T09:25:43;12.20;;;6.68;;
32611;SDS011;19030;49.478;8.986;2022-07-22T09:27:54;8.88;;;6.60;;
32611;SDS011;19030;49.478;8.986;2022-07-22T09:30:23;11.60;;;7.13;;
32611;SDS011;19030;49.478;8.986;2022-07-22T09:32:36;9.48;;;6.35;;
32611;SDS011;19030;49.478;8.986;2022-07-22T09:35:04;12.68;;;6.90;;
32611;SDS011;19030;49.478;8.986;2022-07-22T09:37:14;13.18;;;6.70;;
32611;SDS011;19030;49.478;8.986;2022-07-22T09:39:25;9.98;;;6.72;;
32611;SDS011;19030;49.478;8.986;2022-07-22T09:41:30;9.95;;;6.40;;
32611;SDS011;19030;49.478;8.986;2022-07-22T09:43:32;11.90;;;6.57;;
32611;SDS011;19030;49.478;8.986;2022-07-22T09:45:36;10.13;;;6.75;;
32611;SDS011;19030;49.478;8.986;2022-07-22T09:48:06;9.98;;;6.57;;
32611;SDS011;19030;49.478;8.986;2022-07-22T09:52:43;13.35;;;6.63;;
32611;SDS011;19030;49.478;8.986;2022-07-22T09:54:50;9.25;;;5.93;;
32611;SDS011;19030;49.478;8.986;2022-07-22T09:56:52;9.55;;;6.20;;
32611;SDS011;19030;49.478;8.986;2022-07-22T09:58:53;11.65;;;6.88;;
32611;SDS011;19030;49.478;8.986;2022-07-22T10:01:05;11.70;;;6.53;;
32611;SDS011;19030;49.478;8.986;2022-07-22T10:03:07;9.07;;;6.15;;
32611;SDS011;19030;49.478;8.986;2022-07-22T10:05:12;9.77;;;6.85;;
32611;SDS011;19030;49.478;8.986;2022-07-22T10:07:15;9.23;;;6.00;;
32611;SDS011;19030;49.478;8.986;2022-07-22T10:09:18;14.88;;;6.88;;
32611;SDS011;19030;49.478;8.986;2022-07-22T10:11:21;19.83;;;6.88;;
32611;SDS011;19030;49.478;8.986;2022-07-22T10:13:22;9.73;;;6.47;;
32611;SDS011;19030;49.478;8.986;2022-07-22T10:15:23;12.05;;;6.53;;
32611;SDS011;19030;49.478;8.986;2022-07-22T10:17:25;11.80;;;6.53;;
32611;SDS011;19030;49.478;8.986;2022-07-22T10:19:27;8.88;;;6.13;;
32611;SDS011;19030;49.478;8.986;2022-07-22T10:21:32;10.23;;;7.15;;
32611;SDS011;19030;49.478;8.986;2022-07-22T10:23:34;10.65;;;6.57;;
32611;SDS011;19030;49.478;8.986;2022-07-22T10:25:51;8.07;;;5.95;;
32611;SDS011;19030;49.478;8.986;2022-07-22T10:27:57;10.32;;;6.00;;
32611;SDS011;19030;49.478;8.986;2022-07-22T10:30:05;9.30;;;6.43;;
32611;SDS011;19030;49.478;8.986;2022-07-22T10:34:15;9.23;;;6.43;;
32611;SDS011;19030;49.478;8.986;2022-07-22T10:36:29;7.82;;;5.45;;
32611;SDS011;19030;49.478;8.986;2022-07-22T10:38:34;11.57;;;6.28;;
32611;SDS011;19030;49.478;8.986;2022-07-22T10:40:45;11.52;;;6.82;;
32611;SDS011;19030;49.478;8.986;2022-07-22T10:45:04;10.85;;;6.07;;
32611;SDS011;19030;49.478;8.986;2022-07-22T10:47:07;9.20;;;5.97;;
32611;SDS011;19030;49.478;8.986;2022-07-22T10:49:08;8.35;;;5.97;;
32611;SDS011;19030;49.478;8.986;2022-07-22T10:51:11;11.02;;;6.35;;
32611;SDS011;19030;49.478;8.986;2022-07-22T10:53:14;10.93;;;5.70;;
32611;SDS011;19030;49.478;8.986;2022-07-22T10:55:20;10.45;;;6.40;;
32611;SDS011;19030;49.478;8.986;2022-07-22T10:57:30;12.52;;;6.55;;
32611;SDS011;19030;49.478;8.986;2022-07-22T10:59:31;10.85;;;5.68;;
32611;SDS011;19030;49.478;8.986;2022-07-22T11:01:32;10.07;;;6.22;;
32611;SDS011;19030;49.478;8.986;2022-07-22T11:03:33;10.13;;;5.45;;
32611;SDS011;19030;49.478;8.986;2022-07-22T11:05:35;9.98;;;5.90;;
32611;SDS011;19030;49.478;8.986;2022-07-22T11:07:40;8.75;;;5.90;;
32611;SDS011;19030;49.478;8.986;2022-07-22T11:09:41;11.10;;;5.82;;
32611;SDS011;19030;49.478;8.986;2022-07-22T11:11:52;10.25;;;5.65;;
32611;SDS011;19030;49.478;8.986;2022-07-22T11:13:54;9.20;;;5.60;;
32611;SDS011;19030;49.478;8.986;2022-07-22T11:15:54;10.00;;;6.07;;
32611;SDS011;19030;49.478;8.986;2022-07-22T11:17:56;10.80;;;6.07;;
32611;SDS011;19030;49.478;8.986;2022-07-22T11:19:57;9.35;;;6.30;;
32611;SDS011;19030;49.478;8.986;2022-07-22T11:22:02;8.02;;;5.53;;
32611;SDS011;19030;49.478;8.986;2022-07-22T11:24:05;8.40;;;5.75;;
32611;SDS011;19030;49.478;8.986;2022-07-22T11:26:08;8.52;;;5.65;;
32611;SDS011;19030;49.478;8.986;2022-07-22T11:28:10;9.80;;;5.88;;
32611;SDS011;19030;49.478;8.986;2022-07-22T11:30:11;11.13;;;6.05;;
32611;SDS011;19030;49.478;8.986;2022-07-22T11:32:14;10.13;;;6.18;;
32611;SDS011;19030;49.478;8.986;2022-07-22T11:34:15;9.95;;;6.03;;
32611;SDS011;19030;49.478;8.986;2022-07-22T11:36:16;8.93;;;5.90;;
32611;SDS011;19030;49.478;8.986;2022-07-22T11:38:16;9.70;;;5.40;;
32611;SDS011;19030;49.478;8.986;2022-07-22T11:40:17;8.55;;;6.13;;
32611;SDS011;19030;49.478;8.986;2022-07-22T11:42:18;9.05;;;5.68;;
32611;SDS011;19030;49.478;8.986;2022-07-22T11:44:19;9.82;;;5.57;;
32611;SDS011;19030;49.478;8.986;2022-07-22T11:46:20;10.10;;;5.78;;
32611;SDS011;19030;49.478;8.986;2022-07-22T11:48:23;9.88;;;6.10;;
32611;SDS011;19030;49.478;8.986;2022-07-22T11:50:30;9.02;;;5.70;;
32611;SDS011;19030;49.478;8.986;2022-07-22T11:52:31;8.65;;;5.32;;
32611;SDS011;19030;49.478;8.986;2022-07-22T11:54:32;9.05;;;5.72;;
32611;SDS011;19030;49.478;8.986;2022-07-22T11:56:33;9.38;;;5.88;;
32611;SDS011;19030;49.478;8.986;2022-07-22T11:58:44;7.88;;;5.05;;
32611;SDS011;19030;49.478;8.986;2022-07-22T12:00:46;9.13;;;6.10;;
32611;SDS011;19030;49.478;8.986;2022-07-22T12:02:47;11.68;;;5.38;;
32611;SDS011;19030;49.478;8.986;2022-07-22T12:04:47;8.55;;;5.30;;
32611;SDS011;19030;49.478;8.986;2022-07-22T12:06:48;7.85;;;5.20;;
32611;SDS011;19030;49.478;8.986;2022-07-22T12:08:52;11.55;;;5.82;;
32611;SDS011;19030;49.478;8.986;2022-07-22T12:10:55;8.45;;;5.35;;
32611;SDS011;19030;49.478;8.986;2022-07-22T12:12:57;11.25;;;5.55;;
32611;SDS011;19030;49.478;8.986;2022-07-22T12:14:57;10.85;;;5.75;;
32611;SDS011;19030;49.478;8.986;2022-07-22T12:16:59;8.88;;;5.35;;
32611;SDS011;19030;49.478;8.986;2022-07-22T12:19:08;12.85;;;5.40;;
32611;SDS011;19030;49.478;8.986;2022-07-22T12:21:10;8.48;;;5.55;;
32611;SDS011;19030;49.478;8.986;2022-07-22T12:23:11;9.25;;;5.40;;